createdAt,value
2018-11-23T00:01:04.220Z,1.02
2018-11-23T00:02:13.233Z,0.95
2018-11-23T00:03:21.910Z,1.02
2018-11-23T00:04:30.835Z,0.99
2018-11-23T00:05:39.517Z,0.91
2018-11-23T00:06:48.448Z,0.96
2018-11-23T00:07:57.127Z,0.88
2018-11-23T00:09:05.804Z,0.91
2018-11-23T00:10:15.819Z,0.88
2018-11-23T00:11:24.495Z,0.84
2018-11-23T00:12:33.189Z,0.78
2018-11-23T00:13:41.865Z,0.76
2018-11-23T00:14:50.543Z,0.74
2018-11-23T00:15:59.219Z,0.81
2018-11-23T00:17:07.894Z,0.74
2018-11-23T00:18:16.828Z,0.7
2018-11-23T00:19:25.508Z,0.63
2018-11-23T00:20:34.183Z,0.64
2018-11-23T00:21:42.856Z,0.7
2018-11-23T00:22:51.529Z,0.55
2018-11-23T00:24:00.211Z,0.59
2018-11-23T00:25:08.898Z,0.55
2018-11-23T00:26:17.584Z,0.58
2018-11-23T00:27:26.519Z,0.56
2018-11-23T00:28:35.190Z,0.56
2018-11-23T00:29:43.874Z,0.52
2018-11-23T00:30:52.798Z,0.56
2018-11-23T00:32:01.515Z,0.55
2018-11-23T00:33:10.450Z,0.51
2018-11-23T00:34:19.392Z,0.52
2018-11-23T00:35:28.078Z,0.47
2018-11-23T00:36:36.761Z,0.47
2018-11-23T00:37:45.688Z,0.55
2018-11-23T00:38:54.369Z,0.34
2018-11-23T00:40:03.057Z,0.42
2018-11-23T00:41:11.747Z,0.48
2018-11-23T00:42:20.683Z,0.47
2018-11-23T00:43:29.363Z,0.51
2018-11-23T00:44:38.297Z,0.45
2018-11-23T00:45:47.441Z,0.45
2018-11-23T00:46:56.374Z,0.49
2018-11-23T00:48:05.567Z,0.47
2018-11-23T00:49:14.493Z,0.51
2018-11-23T00:50:23.688Z,0.58
2018-11-23T00:51:32.621Z,0.37
2018-11-23T00:52:41.555Z,0.39
2018-11-23T00:53:50.236Z,0.55
2018-11-23T00:54:59.169Z,0.49
2018-11-23T00:56:07.854Z,0.51
2018-11-23T00:57:16.530Z,0.58
2018-11-23T00:58:25.209Z,0.71
2018-11-23T00:59:33.887Z,0.73
2018-11-23T01:00:42.633Z,0.77
2018-11-23T01:01:51.320Z,0.7
2018-11-23T01:03:00.000Z,0.84
2018-11-23T01:04:08.932Z,0.94
2018-11-23T01:05:17.606Z,0.88
2018-11-23T01:06:26.285Z,0.94
2018-11-23T01:07:34.967Z,1.03
2018-11-23T01:08:43.636Z,1.04
2018-11-23T01:09:52.312Z,1.09
2018-11-23T01:11:00.981Z,1.14
2018-11-23T01:12:09.665Z,1.18
2018-11-23T01:13:18.347Z,1.2
2018-11-23T01:14:27.027Z,1.25
2018-11-23T01:15:35.706Z,1.28
2018-11-23T01:16:44.386Z,1.28
2018-11-23T01:17:53.071Z,1.38
2018-11-23T01:19:01.747Z,1.38
2018-11-23T01:20:10.423Z,1.28
2018-11-23T01:21:19.093Z,1.39
2018-11-23T01:22:27.783Z,1.45
2018-11-23T01:23:36.735Z,1.42
2018-11-23T01:24:45.417Z,1.34
2018-11-23T01:25:54.360Z,1.42
2018-11-23T01:27:03.039Z,1.42
2018-11-23T01:28:11.719Z,1.36
2018-11-23T01:29:20.399Z,1.39
2018-11-23T01:30:29.370Z,1.36
2018-11-23T01:31:38.350Z,1.39
2018-11-23T01:32:47.030Z,1.49
2018-11-23T01:33:55.961Z,1.48
2018-11-23T01:35:04.647Z,1.48
2018-11-23T01:36:13.322Z,1.53
2018-11-23T01:37:22.251Z,1.56
2018-11-23T01:38:31.216Z,1.58
2018-11-23T01:39:39.892Z,1.52
2018-11-23T01:40:48.823Z,1.61
2018-11-23T01:41:57.542Z,1.61
2018-11-23T01:43:06.221Z,1.6
2018-11-23T01:44:14.916Z,1.64
2018-11-23T01:45:23.840Z,1.64
2018-11-23T01:46:32.770Z,1.75
2018-11-23T01:47:41.466Z,1.7
2018-11-23T01:48:50.428Z,1.78
2018-11-23T01:49:59.112Z,1.71
2018-11-23T01:51:07.797Z,1.81
2018-11-23T01:52:16.481Z,1.81
2018-11-23T01:53:25.402Z,1.88
2018-11-23T01:54:34.081Z,1.79
2018-11-23T01:55:43.017Z,1.79
2018-11-23T01:56:51.703Z,1.84
2018-11-23T01:58:00.413Z,1.95
2018-11-23T01:59:09.097Z,1.84
2018-11-23T02:00:17.777Z,1.97
2018-11-23T02:01:26.471Z,2
2018-11-23T02:02:35.393Z,1.95
2018-11-23T02:03:44.077Z,1.92
2018-11-23T02:04:52.752Z,1.88
2018-11-23T02:06:01.436Z,1.98
2018-11-23T02:07:10.372Z,2.07
2018-11-23T02:08:19.054Z,1.95
2018-11-23T02:09:27.982Z,2.05
2018-11-23T02:10:36.920Z,2.04
2018-11-23T02:11:45.612Z,1.98
2018-11-23T02:12:54.543Z,2.07
2018-11-23T02:14:03.229Z,2.04
2018-11-23T02:15:11.895Z,2.05
2018-11-23T02:16:20.866Z,1.97
2018-11-23T02:17:29.536Z,2.03
2018-11-23T02:18:38.221Z,2.03
2018-11-23T02:19:46.895Z,1.95
2018-11-23T02:20:55.847Z,2.08
2018-11-23T02:22:04.772Z,1.92
2018-11-23T02:23:13.456Z,2.04
2018-11-23T02:24:22.123Z,1.97
2018-11-23T02:25:30.801Z,1.93
2018-11-23T02:26:39.485Z,1.92
2018-11-23T02:27:48.424Z,1.86
2018-11-23T02:28:57.363Z,1.89
2018-11-23T02:30:06.548Z,1.86
2018-11-23T02:31:15.995Z,1.89
2018-11-23T02:32:24.665Z,1.86
2018-11-23T02:33:33.357Z,1.93
2018-11-23T02:34:42.029Z,1.84
2018-11-23T02:35:50.706Z,1.86
2018-11-23T02:36:59.654Z,1.75
2018-11-23T02:38:08.333Z,1.81
2018-11-23T02:39:17.009Z,1.84
2018-11-23T02:40:25.954Z,1.75
2018-11-23T02:41:34.667Z,1.74
2018-11-23T02:42:43.360Z,1.58
2018-11-23T02:43:52.288Z,1.61
2018-11-23T02:45:00.956Z,1.6
2018-11-23T02:46:09.638Z,1.56
2018-11-23T02:47:18.332Z,1.46
2018-11-23T02:48:27.274Z,1.45
2018-11-23T02:49:36.202Z,1.42
2018-11-23T02:50:45.395Z,1.31
2018-11-23T02:51:54.064Z,1.3
2018-11-23T02:53:03.005Z,1.3
2018-11-23T02:54:11.683Z,1.3
2018-11-23T02:55:20.886Z,1.22
2018-11-23T02:56:29.562Z,1.22
2018-11-23T02:57:38.248Z,1.21
2018-11-23T02:58:47.455Z,1.2
2018-11-23T02:59:56.133Z,1.07
2018-11-23T03:01:04.799Z,1.06
2018-11-23T03:02:13.479Z,1.04
2018-11-23T03:03:22.157Z,1.02
2018-11-23T03:04:31.096Z,0.89
2018-11-23T03:05:40.027Z,0.91
2018-11-23T03:06:48.955Z,0.86
2018-11-23T03:07:57.648Z,0.77
2018-11-23T03:09:06.867Z,0.74
2018-11-23T03:10:15.810Z,0.71
2018-11-23T03:11:24.486Z,0.78
2018-11-23T03:12:33.165Z,0.74
2018-11-23T03:13:41.836Z,0.71
2018-11-23T03:14:50.522Z,0.63
2018-11-23T03:15:59.443Z,0.7
2018-11-23T03:17:08.129Z,0.61
2018-11-23T03:18:16.815Z,0.68
2018-11-23T03:19:25.496Z,0.58
2018-11-23T03:20:34.170Z,0.63
2018-11-23T03:21:42.850Z,0.52
2018-11-23T03:22:51.528Z,0.61
2018-11-23T03:24:00.453Z,0.52
2018-11-23T03:25:09.394Z,0.58
2018-11-23T03:26:18.070Z,0.56
2018-11-23T03:27:26.750Z,0.59
2018-11-23T03:28:35.422Z,0.55
2018-11-23T03:29:44.109Z,0.49
2018-11-23T03:30:53.290Z,0.56
2018-11-23T03:32:03.016Z,0.51
2018-11-23T03:33:12.458Z,0.48
2018-11-23T03:34:21.407Z,0.51
2018-11-23T03:35:30.335Z,0.44
2018-11-23T03:36:39.270Z,0.45
2018-11-23T03:37:49.289Z,0.51
2018-11-23T03:38:57.969Z,0.49
2018-11-23T03:40:06.913Z,0.44
2018-11-23T03:41:15.843Z,0.49
2018-11-23T03:42:24.523Z,0.4
2018-11-23T03:43:33.445Z,0.37
2018-11-23T03:44:42.120Z,0.33
2018-11-23T03:45:50.793Z,0.33
2018-11-23T03:46:59.732Z,0.29
2018-11-23T03:48:08.674Z,0.24
2018-11-23T03:49:17.363Z,0.26
2018-11-23T03:50:26.038Z,0.18
2018-11-23T03:51:35.242Z,0.23
2018-11-23T03:52:43.915Z,0.16
2018-11-23T03:53:52.592Z,0.26
2018-11-23T03:55:01.277Z,0.15
2018-11-23T03:56:10.480Z,0.13
2018-11-23T03:57:19.159Z,0.11
2018-11-23T03:58:28.105Z,0.08
2018-11-23T03:59:37.299Z,0.11
2018-11-23T04:00:45.972Z,-0.03
2018-11-23T04:01:55.201Z,0.11
2018-11-23T04:03:03.875Z,0
2018-11-23T04:04:12.549Z,0
2018-11-23T04:05:21.223Z,-0.03
2018-11-23T04:06:30.155Z,0.01
2018-11-23T04:07:38.839Z,0.01
2018-11-23T04:08:47.767Z,0.05
2018-11-23T04:09:56.441Z,-0.09
2018-11-23T04:11:05.372Z,-0.05
2018-11-23T04:12:14.044Z,-0.06
2018-11-23T04:13:22.722Z,-0.07
2018-11-23T04:14:31.391Z,-0.12
2018-11-23T04:15:40.329Z,-0.13
2018-11-23T04:16:49.002Z,-0.1
2018-11-23T04:17:57.694Z,-0.09
2018-11-23T04:19:06.882Z,-0.12
2018-11-23T04:20:15.554Z,-0.2
2018-11-23T04:21:24.532Z,-0.18
2018-11-23T04:22:33.208Z,-0.13
2018-11-23T04:23:42.138Z,-0.18
2018-11-23T04:24:50.810Z,-0.17
2018-11-23T04:25:59.734Z,-0.23
2018-11-23T04:27:08.922Z,-0.18
2018-11-23T04:28:17.863Z,-0.21
2018-11-23T04:29:26.797Z,-0.23
2018-11-23T04:30:35.473Z,-0.23
2018-11-23T04:31:44.149Z,-0.24
2018-11-23T04:32:53.088Z,-0.24
2018-11-23T04:34:01.763Z,-0.28
2018-11-23T04:35:10.447Z,-0.35
2018-11-23T04:36:19.135Z,-0.3
2018-11-23T04:37:27.834Z,-0.33
2018-11-23T04:38:36.518Z,-0.33
2018-11-23T04:39:45.206Z,-0.28
2018-11-23T04:40:53.887Z,-0.3
2018-11-23T04:42:02.563Z,-0.35
2018-11-23T04:43:11.767Z,-0.3
2018-11-23T04:44:20.445Z,-0.31
2018-11-23T04:45:29.373Z,-0.28
2018-11-23T04:46:38.309Z,-0.38
2018-11-23T04:47:47.482Z,-0.38
2018-11-23T04:48:56.160Z,-0.41
2018-11-23T04:50:05.694Z,-0.42
2018-11-23T04:51:14.901Z,-0.33
2018-11-23T04:52:23.575Z,-0.38
2018-11-23T04:53:32.508Z,-0.42
2018-11-23T04:54:41.443Z,-0.41
2018-11-23T04:55:50.113Z,-0.45
2018-11-23T04:56:59.046Z,-0.41
2018-11-23T04:58:07.723Z,-0.44
2018-11-23T04:59:16.398Z,-0.44
2018-11-23T05:00:25.320Z,-0.41
2018-11-23T05:01:34.257Z,-0.48
2018-11-23T05:02:42.979Z,-0.51
2018-11-23T05:03:51.902Z,-0.48
2018-11-23T05:05:01.080Z,-0.35
2018-11-23T05:06:09.761Z,-0.46
2018-11-23T05:07:18.439Z,-0.39
2018-11-23T05:08:27.362Z,-0.39
2018-11-23T05:09:36.046Z,-0.49
2018-11-23T05:10:44.735Z,-0.53
2018-11-23T05:11:54.652Z,-0.48
2018-11-23T05:13:03.348Z,-0.46
2018-11-23T05:14:12.025Z,-0.51
2018-11-23T05:15:20.709Z,-0.48
2018-11-23T05:16:29.425Z,-0.49
2018-11-23T05:17:38.350Z,-0.53
2018-11-23T05:18:47.285Z,-0.51
2018-11-23T05:19:55.959Z,-0.54
2018-11-23T05:21:04.631Z,-0.53
2018-11-23T05:22:13.562Z,-0.54
2018-11-23T05:23:22.244Z,-0.51
2018-11-23T05:24:31.163Z,-0.56
2018-11-23T05:25:39.847Z,-0.49
2018-11-23T05:26:48.521Z,-0.53
2018-11-23T05:27:57.198Z,-0.57
2018-11-23T05:29:06.138Z,-0.59
2018-11-23T05:30:15.071Z,-0.49
2018-11-23T05:31:23.995Z,-0.54
2018-11-23T05:32:32.925Z,-0.53
2018-11-23T05:33:41.606Z,-0.49
2018-11-23T05:34:50.529Z,-0.6
2018-11-23T05:35:59.739Z,-0.49
2018-11-23T05:37:08.676Z,-0.51
2018-11-23T05:38:17.612Z,-0.56
2018-11-23T05:39:26.291Z,-0.63
2018-11-23T05:40:34.968Z,-0.54
2018-11-23T05:41:43.703Z,-0.74
2018-11-23T05:42:52.394Z,-0.59
2018-11-23T05:44:08.669Z,-0.6
2018-11-23T05:45:17.601Z,-0.62
2018-11-23T05:46:26.269Z,-0.6
2018-11-23T05:47:34.944Z,-0.63
2018-11-23T05:48:43.874Z,-0.63
2018-11-23T05:49:52.799Z,-0.69
2018-11-23T05:51:01.739Z,-0.59
2018-11-23T05:52:10.661Z,-0.59
2018-11-23T05:53:19.336Z,-0.63
2018-11-23T05:54:28.018Z,-0.62
2018-11-23T05:55:36.708Z,-0.66
2018-11-23T05:56:45.376Z,-0.63
2018-11-23T05:57:54.091Z,-0.66
2018-11-23T05:59:03.286Z,-0.66
2018-11-23T06:00:11.971Z,-0.67
2018-11-23T06:01:20.894Z,-0.64
2018-11-23T06:02:29.829Z,-0.63
2018-11-23T06:03:38.599Z,-0.63
2018-11-23T06:04:47.347Z,-0.67
2018-11-23T06:05:56.296Z,-0.67
2018-11-23T06:07:05.255Z,-0.64
2018-11-23T06:08:14.257Z,-0.63
2018-11-23T06:09:23.186Z,-0.74
2018-11-23T06:10:31.890Z,-0.7
2018-11-23T06:11:40.823Z,-0.66
2018-11-23T06:12:49.509Z,-0.72
2018-11-23T06:13:58.445Z,-0.69
2018-11-23T06:15:07.381Z,-0.63
2018-11-23T06:16:16.297Z,-0.69
2018-11-23T06:17:24.981Z,-0.74
2018-11-23T06:18:33.902Z,-0.78
2018-11-23T06:19:42.593Z,-0.72
2018-11-23T06:20:51.518Z,-0.8
2018-11-23T06:22:00.194Z,-0.8
2018-11-23T06:23:09.377Z,-0.75
2018-11-23T06:24:18.307Z,-0.75
2018-11-23T06:25:27.502Z,-0.81
2018-11-23T06:26:36.215Z,-0.72
2018-11-23T06:27:45.143Z,-0.78
2018-11-23T06:28:54.317Z,-0.8
2018-11-23T06:30:03.256Z,-0.72
2018-11-23T06:31:12.447Z,-0.81
2018-11-23T06:32:21.140Z,-0.78
2018-11-23T06:33:30.060Z,-0.74
2018-11-23T06:34:38.738Z,-0.77
2018-11-23T06:35:47.411Z,-0.81
2018-11-23T06:36:56.358Z,-0.8
2018-11-23T06:38:05.021Z,-0.77
2018-11-23T06:39:13.711Z,-0.77
2018-11-23T06:40:22.905Z,-0.72
2018-11-23T06:41:31.854Z,-0.69
2018-11-23T06:42:46.502Z,-0.63
2018-11-23T06:43:55.425Z,-0.64
2018-11-23T06:45:04.127Z,-0.67
2018-11-23T06:46:13.310Z,-0.74
2018-11-23T06:47:21.999Z,-0.64
2018-11-23T06:48:30.671Z,-0.7
2018-11-23T06:49:39.631Z,-0.74
2018-11-23T06:50:48.344Z,-0.7
2018-11-23T06:51:57.277Z,-0.72
2018-11-23T06:53:05.961Z,-0.77
2018-11-23T06:54:19.065Z,-0.7
2018-11-23T06:55:27.737Z,-0.75
2018-11-23T06:56:36.418Z,-0.75
2018-11-23T06:57:45.101Z,-0.77
2018-11-23T06:58:54.307Z,-0.77
2018-11-23T07:00:02.984Z,-0.78
2018-11-23T07:01:11.959Z,-0.81
2018-11-23T07:02:20.630Z,-0.75
2018-11-23T07:03:29.309Z,-0.78
2018-11-23T07:04:38.002Z,-0.74
2018-11-23T07:05:47.468Z,-0.78
2018-11-23T07:06:56.150Z,-0.75
2018-11-23T07:08:05.082Z,-0.75
2018-11-23T07:09:14.021Z,-0.78
2018-11-23T07:10:22.690Z,-0.77
2018-11-23T07:11:31.364Z,-0.75
2018-11-23T07:12:40.298Z,-0.77
2018-11-23T07:13:49.320Z,-0.75
2018-11-23T07:14:58.044Z,-0.75
2018-11-23T07:16:07.202Z,-0.78
2018-11-23T07:17:16.768Z,-0.78
2018-11-23T07:18:26.284Z,-0.72
2018-11-23T07:19:35.306Z,-0.78
2018-11-23T07:20:44.395Z,-0.67
2018-11-23T07:21:53.323Z,-0.7
2018-11-23T07:23:02.008Z,-0.72
2018-11-23T07:24:10.949Z,-0.66
2018-11-23T07:25:19.676Z,-0.67
2018-11-23T07:26:28.608Z,-0.66
2018-11-23T07:27:37.274Z,-0.63
2018-11-23T07:28:45.958Z,-0.66
2018-11-23T07:29:54.880Z,-0.56
2018-11-23T07:31:06.851Z,-0.64
2018-11-23T07:32:15.777Z,-0.54
2018-11-23T07:33:24.457Z,-0.56
2018-11-23T07:34:33.382Z,-0.67
2018-11-23T07:35:42.061Z,-0.57
2018-11-23T07:36:50.731Z,-0.56
2018-11-23T07:37:59.412Z,-0.54
2018-11-23T07:39:08.103Z,-0.54
2018-11-23T07:40:17.538Z,-0.54
2018-11-23T07:41:26.218Z,-0.41
2018-11-23T07:42:34.879Z,-0.42
2018-11-23T07:43:43.558Z,-0.41
2018-11-23T07:44:52.233Z,-0.48
2018-11-23T07:46:01.173Z,-0.45
2018-11-23T07:47:10.366Z,-0.46
2018-11-23T07:48:19.053Z,-0.49
2018-11-23T07:49:27.781Z,-0.45
2018-11-23T07:50:36.725Z,-0.39
2018-11-23T07:51:45.643Z,-0.44
2018-11-23T07:52:54.322Z,-0.42
2018-11-23T07:54:03.300Z,-0.44
2018-11-23T07:55:11.990Z,-0.36
2018-11-23T07:56:20.923Z,-0.41
2018-11-23T07:57:29.599Z,-0.49
2018-11-23T07:58:38.838Z,-0.39
2018-11-23T07:59:47.774Z,-0.42
2018-11-23T08:00:58.002Z,-0.41
2018-11-23T08:02:06.938Z,-0.35
2018-11-23T08:03:15.639Z,-0.31
2018-11-23T08:04:24.555Z,-0.27
2018-11-23T08:05:33.246Z,-0.33
2018-11-23T08:06:42.204Z,-0.33
2018-11-23T08:07:51.392Z,-0.31
2018-11-23T08:09:00.062Z,-0.24
2018-11-23T08:10:08.811Z,-0.2
2018-11-23T08:11:17.892Z,-0.2
2018-11-23T08:12:26.582Z,-0.24
2018-11-23T08:13:35.765Z,-0.18
2018-11-23T08:14:44.701Z,-0.13
2018-11-23T08:15:53.390Z,-0.07
2018-11-23T08:17:02.070Z,-0.09
2018-11-23T08:18:10.750Z,0
2018-11-23T08:19:19.422Z,0.12
2018-11-23T08:20:28.105Z,0.11
2018-11-23T08:21:37.051Z,0.23
2018-11-23T08:22:45.987Z,0.26
2018-11-23T08:23:54.658Z,0.27
2018-11-23T08:25:03.597Z,0.33
2018-11-23T08:26:12.522Z,0.29
2018-11-23T08:27:21.462Z,0.39
2018-11-23T08:28:30.127Z,0.4
2018-11-23T08:29:38.803Z,0.51
2018-11-23T08:30:47.482Z,0.39
2018-11-23T08:31:56.168Z,0.48
2018-11-23T08:33:04.840Z,0.47
2018-11-23T08:34:14.022Z,0.34
2018-11-23T08:35:22.959Z,0.49
2018-11-23T08:36:31.888Z,0.49
2018-11-23T08:37:40.837Z,0.56
2018-11-23T08:38:49.768Z,0.55
2018-11-23T08:39:58.437Z,0.58
2018-11-23T08:41:07.723Z,0.64
2018-11-23T08:42:16.388Z,0.63
2018-11-23T08:43:25.342Z,0.68
2018-11-23T08:44:34.011Z,0.71
2018-11-23T08:45:42.701Z,0.76
2018-11-23T08:46:51.370Z,0.67
2018-11-23T08:48:00.113Z,0.71
2018-11-23T08:49:08.790Z,0.77
2018-11-23T08:50:17.476Z,0.71
2018-11-23T08:51:26.404Z,0.81
2018-11-23T08:52:35.597Z,0.84
2018-11-23T08:53:44.780Z,0.89
2018-11-23T08:54:53.467Z,0.91
2018-11-23T08:56:02.406Z,0.89
2018-11-23T08:57:11.336Z,0.94
2018-11-23T08:58:20.269Z,0.94
2018-11-23T08:59:28.935Z,1
2018-11-23T09:00:37.625Z,1.06
2018-11-23T09:01:46.555Z,1.12
2018-11-23T09:02:55.491Z,1.13
2018-11-23T09:04:04.167Z,1.21
2018-11-23T09:05:12.853Z,1.27
2018-11-23T09:06:21.535Z,1.27
2018-11-23T09:07:30.483Z,1.25
2018-11-23T09:08:39.152Z,1.27
2018-11-23T09:09:48.103Z,1.28
2018-11-23T09:10:56.787Z,1.28
2018-11-23T09:12:05.726Z,1.39
2018-11-23T09:13:14.480Z,1.4
2018-11-23T09:14:23.146Z,1.34
2018-11-23T09:15:31.827Z,1.42
2018-11-23T09:16:40.513Z,1.57
2018-11-23T09:17:49.210Z,1.5
2018-11-23T09:18:58.171Z,1.5
2018-11-23T09:20:07.143Z,1.56
2018-11-23T09:21:16.076Z,1.6
2018-11-23T09:22:28.158Z,1.74
2018-11-23T09:23:37.347Z,1.7
2018-11-23T09:24:46.278Z,1.76
2018-11-23T09:25:54.954Z,1.76
2018-11-23T09:27:03.641Z,1.81
2018-11-23T09:28:12.319Z,1.84
2018-11-23T09:29:21.636Z,1.86
2018-11-23T09:30:30.606Z,1.97
2018-11-23T09:31:39.289Z,2
2018-11-23T09:32:47.977Z,1.88
2018-11-23T09:33:56.654Z,1.93
2018-11-23T09:35:05.640Z,1.97
2018-11-23T09:36:14.563Z,2.14
2018-11-23T09:37:23.252Z,2.07
2018-11-23T09:38:31.926Z,2.1
2018-11-23T09:39:40.785Z,2.18
2018-11-23T09:40:49.582Z,2.22
2018-11-23T09:41:58.520Z,2.14
2018-11-23T09:43:07.446Z,2.16
2018-11-23T09:44:16.126Z,2.22
2018-11-23T09:45:24.809Z,2.28
2018-11-23T09:46:33.751Z,2.26
2018-11-23T09:47:42.689Z,2.26
2018-11-23T09:48:51.637Z,2.34
2018-11-23T09:50:00.570Z,2.37
2018-11-23T09:51:09.538Z,2.34
2018-11-23T09:52:18.220Z,2.37
2018-11-23T09:53:27.151Z,2.39
2018-11-23T09:54:36.083Z,2.4
2018-11-23T09:55:44.755Z,2.44
2018-11-23T09:56:53.938Z,2.5
2018-11-23T09:58:02.874Z,2.54
2018-11-23T09:59:11.827Z,2.52
2018-11-23T10:00:20.615Z,2.61
2018-11-23T10:01:29.353Z,2.59
2018-11-23T10:02:38.540Z,2.7
2018-11-23T10:03:47.503Z,2.73
2018-11-23T10:04:56.535Z,2.76
2018-11-23T10:06:06.034Z,2.79
2018-11-23T10:07:14.710Z,2.79
2018-11-23T10:08:23.646Z,2.94
2018-11-23T10:09:32.576Z,2.9
2018-11-23T10:10:41.253Z,3.03
2018-11-23T10:11:49.937Z,3.01
2018-11-23T10:12:58.857Z,3.01
2018-11-23T10:14:07.539Z,3.08
2018-11-23T10:15:16.250Z,3.08
2018-11-23T10:16:24.922Z,3.18
2018-11-23T10:17:33.859Z,3.26
2018-11-23T10:18:42.558Z,3.19
2018-11-23T10:19:51.947Z,3.33
2018-11-23T10:21:05.146Z,3.37
2018-11-23T10:22:14.080Z,3.45
2018-11-23T10:23:23.278Z,3.43
2018-11-23T10:24:31.993Z,3.5
2018-11-23T10:25:40.695Z,3.46
2018-11-23T10:26:49.383Z,3.56
2018-11-23T10:27:58.332Z,3.61
2018-11-23T10:29:07.087Z,3.67
2018-11-23T10:30:15.765Z,3.71
2018-11-23T10:31:24.708Z,3.76
2018-11-23T10:32:33.383Z,3.66
2018-11-23T10:33:42.061Z,3.73
2018-11-23T10:34:50.742Z,3.74
2018-11-23T10:36:00.684Z,3.81
2018-11-23T10:37:09.396Z,3.82
2018-11-23T10:38:18.077Z,3.85
2018-11-23T10:39:26.855Z,3.86
2018-11-23T10:40:35.773Z,4
2018-11-23T10:41:44.449Z,4.02
2018-11-23T10:42:53.384Z,4.06
2018-11-23T10:44:02.071Z,4
2018-11-23T10:45:10.762Z,4.1
2018-11-23T10:46:19.706Z,4.1
2018-11-23T10:47:28.390Z,4.16
2018-11-23T10:48:37.070Z,4.28
2018-11-23T10:49:45.758Z,4.24
2018-11-23T10:50:54.429Z,4.28
2018-11-23T10:52:03.438Z,4.3
2018-11-23T10:53:12.680Z,4.39
2018-11-23T10:54:21.378Z,4.38
2018-11-23T10:55:30.304Z,4.36
2018-11-23T10:56:38.990Z,4.49
2018-11-23T10:57:47.668Z,4.5
2018-11-23T10:58:56.362Z,4.53
2018-11-23T11:00:05.342Z,4.52
2018-11-23T11:01:14.023Z,4.64
2018-11-23T11:02:22.700Z,4.66
2018-11-23T11:03:31.391Z,4.64
2018-11-23T11:04:40.373Z,4.7
2018-11-23T11:05:49.337Z,4.82
2018-11-23T11:06:58.899Z,4.7
2018-11-23T11:08:07.833Z,4.76
2018-11-23T11:09:17.080Z,4.78
2018-11-23T11:10:25.761Z,4.87
2018-11-23T11:11:34.703Z,4.83
2018-11-23T11:12:43.368Z,4.84
2018-11-23T11:13:52.054Z,4.95
2018-11-23T11:15:01.011Z,4.89
2018-11-23T11:16:09.968Z,4.89
2018-11-23T11:17:18.897Z,4.94
2018-11-23T11:18:27.576Z,4.86
2018-11-23T11:19:36.255Z,4.94
2018-11-23T11:20:45.183Z,4.94
2018-11-23T11:21:53.861Z,5.02
2018-11-23T11:23:02.796Z,4.95
2018-11-23T11:24:11.985Z,5
2018-11-23T11:25:20.698Z,5.07
2018-11-23T11:26:29.391Z,5.08
2018-11-23T11:27:38.575Z,5.16
2018-11-23T11:28:47.260Z,5.22
2018-11-23T11:29:55.975Z,5.15
2018-11-23T11:31:04.663Z,5.26
2018-11-23T11:32:13.589Z,5.34
2018-11-23T11:33:22.784Z,5.4
2018-11-23T11:34:32.017Z,5.38
2018-11-23T11:35:40.711Z,5.41
2018-11-23T11:36:49.391Z,5.47
2018-11-23T11:37:58.070Z,5.44
2018-11-23T11:39:06.751Z,5.44
2018-11-23T11:40:15.437Z,5.46
2018-11-23T11:41:24.639Z,5.49
2018-11-23T11:42:33.319Z,5.49
2018-11-23T11:43:41.996Z,5.54
2018-11-23T11:44:50.927Z,5.59
2018-11-23T11:45:59.632Z,5.61
2018-11-23T11:47:08.827Z,5.7
2018-11-23T11:48:17.509Z,5.67
2018-11-23T11:49:26.194Z,5.74
2018-11-23T11:50:35.128Z,5.77
2018-11-23T11:51:44.068Z,5.81
2018-11-23T11:52:52.751Z,5.79
2018-11-23T11:54:01.433Z,5.9
2018-11-23T11:55:10.613Z,5.83
2018-11-23T11:56:19.295Z,5.91
2018-11-23T11:57:27.977Z,5.91
2018-11-23T11:58:36.657Z,5.91
2018-11-23T11:59:45.588Z,5.99
2018-11-23T12:00:54.263Z,5.94
2018-11-23T12:02:03.204Z,6.09
2018-11-23T12:03:16.857Z,6.1
2018-11-23T12:04:25.535Z,6.12
2018-11-23T12:05:34.725Z,6.17
2018-11-23T12:06:43.663Z,6.2
2018-11-23T12:07:52.346Z,6.32
2018-11-23T12:09:01.027Z,6.35
2018-11-23T12:10:09.715Z,6.34
2018-11-23T12:11:18.652Z,6.38
2018-11-23T12:12:27.333Z,6.38
2018-11-23T12:13:36.006Z,6.44
2018-11-23T12:14:44.935Z,6.54
2018-11-23T12:15:53.867Z,6.53
2018-11-23T12:17:02.541Z,6.59
2018-11-23T12:18:11.497Z,6.62
2018-11-23T12:19:20.184Z,6.59
2018-11-23T12:20:28.868Z,6.57
2018-11-23T12:21:37.541Z,6.56
2018-11-23T12:22:46.480Z,6.57
2018-11-23T12:23:55.177Z,6.57
2018-11-23T12:25:04.112Z,6.56
2018-11-23T12:26:12.789Z,6.64
2018-11-23T12:27:21.477Z,6.59
2018-11-23T12:28:30.156Z,6.59
2018-11-23T12:29:38.845Z,6.59
2018-11-23T12:30:47.520Z,6.64
2018-11-23T12:31:56.197Z,6.59
2018-11-23T12:33:04.879Z,6.64
2018-11-23T12:34:13.561Z,6.59
2018-11-23T12:35:22.497Z,6.54
2018-11-23T12:36:31.443Z,6.65
2018-11-23T12:37:40.129Z,6.64
2018-11-23T12:38:48.810Z,6.6
2018-11-23T12:39:57.736Z,6.6
2018-11-23T12:41:07.184Z,6.6
2018-11-23T12:42:15.877Z,6.59
2018-11-23T12:43:24.555Z,6.62
2018-11-23T12:44:33.491Z,6.6
2018-11-23T12:45:42.170Z,6.62
2018-11-23T12:46:51.101Z,6.6
2018-11-23T12:48:00.055Z,6.57
2018-11-23T12:49:09.252Z,6.65
2018-11-23T12:50:17.940Z,6.65
2018-11-23T12:51:27.123Z,6.59
2018-11-23T12:52:35.805Z,6.68
2018-11-23T12:53:44.992Z,6.67
2018-11-23T12:54:53.933Z,6.56
2018-11-23T12:56:02.915Z,6.64
2018-11-23T12:57:11.863Z,6.67
2018-11-23T12:58:20.553Z,6.7
2018-11-23T12:59:29.228Z,6.62
2018-11-23T13:00:37.912Z,6.68
2018-11-23T13:01:46.844Z,6.74
2018-11-23T13:02:55.782Z,6.65
2018-11-23T13:04:04.725Z,6.68
2018-11-23T13:05:13.918Z,6.68
2018-11-23T13:06:22.930Z,6.65
2018-11-23T13:07:31.628Z,6.75
2018-11-23T13:08:40.311Z,6.65
2018-11-23T13:09:49.238Z,6.68
2018-11-23T13:10:57.912Z,6.65
2018-11-23T13:12:06.851Z,6.67
2018-11-23T13:13:15.545Z,6.65
2018-11-23T13:14:24.222Z,6.75
2018-11-23T13:15:32.910Z,6.7
2018-11-23T13:16:41.873Z,6.71
2018-11-23T13:17:50.821Z,6.67
2018-11-23T13:18:59.506Z,6.71
2018-11-23T13:20:08.442Z,6.7
2018-11-23T13:21:17.377Z,6.75
2018-11-23T13:22:26.830Z,6.82
2018-11-23T13:23:35.512Z,6.74
2018-11-23T13:24:44.192Z,6.72
2018-11-23T13:25:52.868Z,6.75
2018-11-23T13:27:01.809Z,6.72
2018-11-23T13:28:10.496Z,6.74
2018-11-23T13:29:20.907Z,6.7
2018-11-23T13:30:29.591Z,6.72
2018-11-23T13:31:38.269Z,6.74
2018-11-23T13:32:46.965Z,6.72
2018-11-23T13:33:55.643Z,6.67
2018-11-23T13:35:04.588Z,6.7
2018-11-23T13:36:13.512Z,6.71
2018-11-23T13:37:22.207Z,6.67
2018-11-23T13:38:30.878Z,6.71
2018-11-23T13:39:39.568Z,6.72
2018-11-23T13:40:48.496Z,6.62
2018-11-23T13:41:57.179Z,6.62
2018-11-23T13:43:06.111Z,6.7
2018-11-23T13:44:14.799Z,6.59
2018-11-23T13:45:24.000Z,6.7
2018-11-23T13:46:32.684Z,6.57
2018-11-23T13:47:41.621Z,6.6
2018-11-23T13:48:50.549Z,6.65
2018-11-23T13:49:59.250Z,6.57
2018-11-23T13:51:07.931Z,6.68
2018-11-23T13:52:16.619Z,6.57
2018-11-23T13:53:25.797Z,6.62
2018-11-23T13:54:34.991Z,6.62
2018-11-23T13:55:43.668Z,6.62
2018-11-23T13:56:52.860Z,6.62
2018-11-23T13:58:01.529Z,6.62
2018-11-23T13:59:10.221Z,6.56
2018-11-23T14:00:18.894Z,6.68
2018-11-23T14:01:27.579Z,6.56
2018-11-23T14:02:36.249Z,6.64
2018-11-23T14:03:44.939Z,6.65
2018-11-23T14:04:53.624Z,6.6
2018-11-23T14:06:02.559Z,6.64
2018-11-23T14:07:11.492Z,6.52
2018-11-23T14:08:20.461Z,6.54
2018-11-23T14:09:29.143Z,6.57
2018-11-23T14:10:37.821Z,6.53
2018-11-23T14:11:46.767Z,6.49
2018-11-23T14:12:55.695Z,6.41
2018-11-23T14:14:04.643Z,6.43
2018-11-23T14:15:13.318Z,6.44
2018-11-23T14:16:22.009Z,6.41
2018-11-23T14:17:30.687Z,6.32
2018-11-23T14:18:39.674Z,6.39
2018-11-23T14:19:48.356Z,6.35
2018-11-23T14:20:57.046Z,6.38
2018-11-23T14:22:05.974Z,6.39
2018-11-23T14:23:14.652Z,6.26
2018-11-23T14:24:23.347Z,6.35
2018-11-23T14:25:32.540Z,6.35
2018-11-23T14:26:41.229Z,6.43
2018-11-23T14:27:50.157Z,6.32
2018-11-23T14:28:58.903Z,6.36
2018-11-23T14:30:07.581Z,6.31
2018-11-23T14:31:16.270Z,6.34
2018-11-23T14:32:25.639Z,6.28
2018-11-23T14:33:34.573Z,6.32
2018-11-23T14:34:43.253Z,6.25
2018-11-23T14:35:51.936Z,6.26
2018-11-23T14:37:00.887Z,6.26
2018-11-23T14:38:09.824Z,6.2
2018-11-23T14:39:18.509Z,6.25
2018-11-23T14:40:27.721Z,6.29
2018-11-23T14:41:36.401Z,6.29
2018-11-23T14:42:45.079Z,6.19
2018-11-23T14:43:53.764Z,6.26
2018-11-23T14:45:02.437Z,6.28
2018-11-23T14:46:11.110Z,6.29
2018-11-23T14:47:20.046Z,6.31
2018-11-23T14:48:29.242Z,6.2
2018-11-23T14:49:38.175Z,6.15
2018-11-23T14:50:47.113Z,6.15
2018-11-23T14:51:55.796Z,6.12
2018-11-23T14:53:04.744Z,6.1
2018-11-23T14:54:13.423Z,6.05
2018-11-23T14:55:22.622Z,5.99
2018-11-23T14:56:31.297Z,5.98
2018-11-23T14:57:40.240Z,5.87
2018-11-23T14:58:48.912Z,5.83
2018-11-23T14:59:57.606Z,5.84
2018-11-23T15:01:06.299Z,5.81
2018-11-23T15:02:15.494Z,5.73
2018-11-23T15:03:24.678Z,5.62
2018-11-23T15:04:33.360Z,5.58
2018-11-23T15:05:42.039Z,5.61
2018-11-23T15:06:50.713Z,5.44
2018-11-23T15:07:59.399Z,5.46
2018-11-23T15:09:08.081Z,5.47
2018-11-23T15:10:17.019Z,5.4
2018-11-23T15:11:25.702Z,5.51
2018-11-23T15:12:34.417Z,5.36